Time;durP1;ratioP1;P1;durP2;ratioP2;P2;SDS_P1;SDS_P2;PMS_P1;PMS_P2;Temp;Humidity;BMP_temperature;BMP_pressure;BME280_temperature;BME280_humidity;BME280_pressure;Samples;Min_cycle;Max_cycle;Signal;HPM_P1;HPM_P2
2022/12/02 00:01:47;;;;;;;15.40;8.70;;;9.30;56.60;;;;;;4935031;28;20478;-85
2022/12/02 00:04:21;;;;;;;17.20;9.60;;;9.40;56.50;;;;;;4940608;29;20463;-84
2022/12/02 00:06:51;;;;;;;19.27;8.57;;;9.70;56.40;;;;;;4931951;29;20804;-86
2022/12/02 00:09:30;;;;;;;14.70;9.10;;;9.90;56.50;;;;;;4903619;29;20967;-84
2022/12/02 00:11:58;;;;;;;16.97;9.27;;;9.40;55.70;;;;;;4941209;28;20510;-86
2022/12/02 00:14:27;;;;;;;15.03;8.10;;;9.60;56.20;;;;;;4935346;28;20454;-84
2022/12/02 00:16:55;;;;;;;19.13;8.03;;;9.80;56.60;;;;;;4930120;29;20458;-84
2022/12/02 00:19:23;;;;;;;18.80;8.57;;;9.70;55.50;;;;;;4936837;29;20454;-84
2022/12/02 00:21:53;;;;;;;15.97;8.33;;;9.80;56.10;;;;;;4964252;28;20504;-85
2022/12/02 00:24:20;;;;;;;17.00;8.40;;;9.80;55.50;;;;;;4951360;28;20486;-85
2022/12/02 00:26:47;;;;;;;19.33;8.63;;;9.50;55.90;;;;;;4932613;29;20454;-84
2022/12/02 00:29:14;;;;;;;19.73;8.27;;;9.50;56.40;;;;;;4962450;28;20465;-85
2022/12/02 00:31:41;;;;;;;21.87;9.37;;;9.50;56.30;;;;;;4945214;28;20485;-84
2022/12/02 00:34:08;;;;;;;17.67;9.97;;;9.50;56.00;;;;;;4938138;29;20510;-84
2022/12/02 00:36:35;;;;;;;19.77;9.27;;;9.60;55.80;;;;;;4909734;29;20900;-84
2022/12/02 00:39:05;;;;;;;16.70;8.37;;;9.80;55.90;;;;;;4939478;29;20461;-84
2022/12/02 00:41:32;;;;;;;17.00;8.97;;;9.90;55.20;;;;;;4917194;29;20938;-84
2022/12/02 00:46:43;;;;;;;18.17;9.33;;;10.10;54.80;;;;;;4907673;29;20469;-85
2022/12/02 00:49:12;;;;;;;18.00;8.07;;;10.20;54.40;;;;;;4909594;29;20450;-85
2022/12/02 00:51:41;;;;;;;14.40;8.10;;;10.30;54.20;;;;;;4921040;29;20462;-88
2022/12/02 00:54:11;;;;;;;19.10;9.40;;;10.00;54.00;;;;;;4956625;28;20450;-85
2022/12/02 00:56:38;;;;;;;16.67;10.27;;;10.10;54.60;;;;;;4924814;28;20553;-86
2022/12/02 00:59:06;;;;;;;22.50;9.90;;;10.20;54.50;;;;;;4920291;29;20465;-84
2022/12/02 01:01:34;;;;;;;16.40;7.83;;;9.90;55.00;;;;;;4920305;29;20471;-85
2022/12/02 01:04:01;;;;;;;18.17;8.97;;;9.60;55.20;;;;;;4933032;29;20442;-85
2022/12/02 01:06:28;;;;;;;15.83;8.20;;;9.80;55.50;;;;;;4948847;28;20458;-85
2022/12/02 01:08:55;;;;;;;14.70;7.43;;;10.00;54.50;;;;;;4921332;29;20528;-87
2022/12/02 01:11:24;;;;;;;21.67;9.37;;;10.00;54.10;;;;;;4957756;28;20497;-85
2022/12/02 01:13:51;;;;;;;17.87;9.20;;;10.00;53.80;;;;;;4920156;29;20510;-84
2022/12/02 01:16:18;;;;;;;20.27;8.90;;;10.10;54.00;;;;;;4919936;29;20551;-85
2022/12/02 01:18:45;;;;;;;19.20;8.23;;;10.10;54.10;;;;;;4939398;29;20516;-85
2022/12/02 01:21:12;;;;;;;20.20;9.30;;;10.20;54.20;;;;;;4901646;29;20793;-86
2022/12/02 01:23:39;;;;;;;18.50;9.10;;;10.30;54.60;;;;;;4917275;29;20807;-85
2022/12/02 01:26:06;;;;;;;21.17;9.63;;;10.20;54.10;;;;;;4938870;28;20542;-84
2022/12/02 01:28:35;;;;;;;17.30;9.40;;;10.10;53.80;;;;;;4941049;29;20461;-85
2022/12/02 01:31:02;;;;;;;18.37;8.80;;;10.00;53.70;;;;;;4915917;29;20965;-85
2022/12/02 01:33:30;;;;;;;17.27;9.07;;;10.10;53.70;;;;;;4951334;28;20753;-85
2022/12/02 01:35:57;;;;;;;18.53;9.07;;;10.20;54.10;;;;;;4900657;29;20464;-87
2022/12/02 01:38:24;;;;;;;18.67;9.23;;;10.10;54.00;;;;;;4935823;29;21044;-85
2022/12/02 01:40:52;;;;;;;13.53;8.07;;;10.30;54.50;;;;;;4901566;29;20458;-85
2022/12/02 01:43:20;;;;;;;17.00;8.83;;;10.30;54.40;;;;;;4963822;28;20489;-86
2022/12/02 01:45:49;;;;;;;17.73;8.73;;;10.10;53.80;;;;;;4918809;29;20458;-85
2022/12/02 01:48:16;;;;;;;16.70;7.60;;;10.10;53.60;;;;;;4941178;28;20482;-86
2022/12/02 01:50:43;;;;;;;14.27;8.17;;;10.20;54.10;;;;;;4955464;28;20459;-86
2022/12/02 01:53:10;;;;;;;14.60;8.10;;;10.20;54.10;;;;;;4947958;28;20463;-86
2022/12/02 01:55:37;;;;;;;15.80;9.10;;;10.20;54.00;;;;;;4907400;29;21423;-84
2022/12/02 01:58:05;;;;;;;16.70;7.90;;;10.20;54.20;;;;;;4921042;29;20986;-85
2022/12/02 02:00:32;;;;;;;17.57;8.27;;;10.10;54.10;;;;;;4940477;28;20463;-87
2022/12/02 02:03:00;;;;;;;17.63;9.73;;;10.20;53.90;;;;;;4934267;28;20537;-87
2022/12/02 02:05:31;;;;;;;13.00;8.03;;;10.30;53.90;;;;;;4935378;29;20978;-85
2022/12/02 02:08:02;;;;;;;14.20;8.20;;;10.30;54.10;;;;;;4948899;28;20830;-85
2022/12/02 02:10:30;;;;;;;22.47;10.13;;;10.30;54.00;;;;;;4916279;29;20458;-85
2022/12/02 02:12:58;;;;;;;18.03;8.20;;;10.20;54.00;;;;;;4932517;29;20470;-86
2022/12/02 02:15:25;;;;;;;18.47;9.83;;;10.30;53.50;;;;;;4967046;28;20450;-85
2022/12/02 02:17:54;;;;;;;15.90;8.80;;;10.20;53.70;;;;;;4939790;28;20489;-85
2022/12/02 02:20:24;;;;;;;20.23;8.33;;;10.20;54.00;;;;;;4954009;28;20876;-86
2022/12/02 02:22:58;;;;;;;17.80;9.20;;;10.00;54.00;;;;;;4941652;28;20526;-85
2022/12/02 02:25:27;;;;;;;19.80;8.67;;;9.80;55.20;;;;;;4954217;28;20453;-85
2022/12/02 02:27:56;;;;;;;17.23;8.17;;;9.60;55.70;;;;;;4935052;29;20515;-85
2022/12/02 02:30:24;;;;;;;19.10;8.63;;;9.60;55.70;;;;;;4943885;29;20907;-85
2022/12/02 02:32:53;;;;;;;19.53;8.80;;;9.30;55.90;;;;;;4943883;29;20505;-85
2022/12/02 02:35:22;;;;;;;24.90;8.97;;;9.30;56.70;;;;;;4909036;29;20461;-85
2022/12/02 02:37:50;;;;;;;18.93;7.90;;;9.40;56.50;;;;;;4950696;28;20457;-87
2022/12/02 02:40:19;;;;;;;16.97;8.20;;;9.60;56.40;;;;;;4955261;28;20501;-85
2022/12/02 02:42:51;;;;;;;15.63;8.60;;;9.70;56.30;;;;;;4935789;28;20490;-85
2022/12/02 02:45:20;;;;;;;16.30;7.60;;;9.90;55.80;;;;;;4936764;28;20990;-85
2022/12/02 02:47:48;;;;;;;14.90;8.77;;;9.40;55.60;;;;;;4942829;29;20460;-85
2022/12/02 02:50:16;;;;;;;19.10;7.90;;;9.40;56.40;;;;;;4926739;29;20465;-85
2022/12/02 02:52:43;;;;;;;20.13;9.57;;;9.60;56.30;;;;;;4901716;29;20550;-84
2022/12/02 02:55:17;;;;;;;16.33;9.03;;;9.80;56.30;;;;;;4943367;29;20462;-85
2022/12/02 02:57:44;;;;;;;18.70;9.23;;;9.70;55.40;;;;;;4952102;28;20454;-85
2022/12/02 03:00:14;;;;;;;20.20;8.33;;;9.60;55.70;;;;;;4950060;28;20467;-85
2022/12/02 03:02:43;;;;;;;17.27;8.00;;;9.60;56.30;;;;;;4932786;28;21062;-87
2022/12/02 03:05:10;;;;;;;17.70;9.77;;;9.70;56.30;;;;;;4928433;29;20503;-85
2022/12/02 03:07:37;;;;;;;27.67;9.87;;;9.40;55.90;;;;;;4937161;29;20459;-84
2022/12/02 03:10:06;;;;;;;21.37;9.10;;;9.20;56.80;;;;;;4952022;28;20777;-87
2022/12/02 03:12:34;;;;;;;16.07;8.77;;;9.40;56.80;;;;;;4918605;29;20486;-86
2022/12/02 03:15:02;;;;;;;15.33;8.33;;;9.30;56.70;;;;;;4917399;29;20470;-86
2022/12/02 03:17:31;;;;;;;19.07;8.80;;;9.50;57.00;;;;;;4943121;28;20481;-85
2022/12/02 03:19:59;;;;;;;17.37;8.73;;;9.60;56.00;;;;;;4917244;29;21050;-86
2022/12/02 03:22:26;;;;;;;17.37;8.43;;;9.40;56.20;;;;;;4927532;29;20474;-84
2022/12/02 03:24:53;;;;;;;19.10;9.03;;;9.50;56.20;;;;;;4911574;29;20980;-85
2022/12/02 03:27:20;;;;;;;17.03;8.43;;;9.20;56.50;;;;;;4958485;28;20469;-85
2022/12/02 03:29:47;;;;;;;17.70;8.50;;;9.00;57.50;;;;;;4951362;28;20823;-86
2022/12/02 03:32:15;;;;;;;19.93;9.70;;;9.20;57.50;;;;;;4951250;28;20947;-84
2022/12/02 03:34:43;;;;;;;18.07;8.27;;;9.00;57.30;;;;;;4931505;29;20645;-85
2022/12/02 03:37:11;;;;;;;19.10;7.87;;;9.00;57.70;;;;;;4940070;29;20455;-85
2022/12/02 03:39:38;;;;;;;17.30;8.93;;;9.40;57.50;;;;;;4910243;29;20842;-85
2022/12/02 03:42:06;;;;;;;16.50;8.53;;;9.60;56.70;;;;;;4952465;28;20475;-87
2022/12/02 03:44:33;;;;;;;19.53;8.90;;;9.70;56.40;;;;;;4932470;29;20493;-85
2022/12/02 03:47:01;;;;;;;18.03;9.20;;;9.50;56.20;;;;;;4939229;28;20977;-84
2022/12/02 03:49:29;;;;;;;23.30;8.60;;;9.40;56.40;;;;;;4936129;28;20447;-84
2022/12/02 03:51:57;;;;;;;14.80;8.23;;;9.40;56.90;;;;;;4957587;28;20478;-85
2022/12/02 03:54:24;;;;;;;16.63;9.17;;;9.50;56.60;;;;;;4904009;29;20888;-86
2022/12/02 03:56:51;;;;;;;20.20;9.73;;;9.50;56.70;;;;;;4923866;29;21105;-85
2022/12/02 03:59:20;;;;;;;19.10;8.73;;;9.30;56.80;;;;;;4964719;28;20447;-86
2022/12/02 04:01:48;;;;;;;22.53;9.30;;;9.30;56.90;;;;;;4933011;29;20533;-87
2022/12/02 04:04:15;;;;;;;17.57;7.67;;;9.40;56.80;;;;;;4934200;28;20509;-85
2022/12/02 04:06:42;;;;;;;16.90;8.63;;;9.20;57.10;;;;;;4941534;29;20439;-85
2022/12/02 04:09:10;;;;;;;18.80;10.20;;;9.20;57.20;;;;;;4952395;28;20829;-87
2022/12/02 04:11:37;;;;;;;19.00;9.40;;;8.90;57.80;;;;;;4911583;29;20488;-85
2022/12/02 04:14:04;;;;;;;18.77;9.73;;;9.10;57.80;;;;;;4919568;29;20439;-86
2022/12/02 04:16:31;;;;;;;15.70;8.30;;;9.20;57.30;;;;;;4941398;29;20469;-85
2022/12/02 04:18:59;;;;;;;21.60;10.17;;;9.00;57.60;;;;;;4932214;28;20461;-86
2022/12/02 04:21:26;;;;;;;15.30;9.63;;;8.90;57.90;;;;;;4948058;28;20481;-87
2022/12/02 04:23:53;;;;;;;23.30;9.97;;;8.80;58.10;;;;;;4933008;29;20483;-85
2022/12/02 04:26:21;;;;;;;19.30;9.63;;;8.80;58.50;;;;;;4934462;28;20466;-85
2022/12/02 04:28:49;;;;;;;18.90;9.97;;;9.00;58.00;;;;;;4947573;28;20799;-85
2022/12/02 04:31:16;;;;;;;18.43;8.10;;;9.00;57.90;;;;;;4944481;28;20530;-85
2022/12/02 04:33:43;;;;;;;16.63;8.57;;;8.70;58.10;;;;;;4947470;28;20458;-85
2022/12/02 04:36:10;;;;;;;20.43;8.93;;;8.90;58.40;;;;;;4934555;29;20459;-85
2022/12/02 04:38:37;;;;;;;16.63;8.60;;;8.60;58.90;;;;;;4922759;29;20478;-85
2022/12/02 04:41:04;;;;;;;21.97;8.40;;;8.50;58.90;;;;;;4933002;29;20453;-85
2022/12/02 04:43:32;;;;;;;18.57;9.00;;;8.70;58.60;;;;;;4935251;29;20820;-87
2022/12/02 04:45:59;;;;;;;16.70;9.87;;;8.70;58.60;;;;;;4914960;29;20458;-85
2022/12/02 04:48:26;;;;;;;21.97;10.40;;;8.60;59.10;;;;;;4948280;28;20458;-85
2022/12/02 04:50:53;;;;;;;19.47;8.23;;;8.90;59.00;;;;;;4940724;28;20823;-86
2022/12/02 04:53:20;;;;;;;16.77;8.47;;;9.00;58.70;;;;;;4939649;29;20624;-85
2022/12/02 04:55:47;;;;;;;16.83;9.50;;;9.00;58.30;;;;;;4925417;29;20455;-85
2022/12/02 04:58:14;;;;;;;22.50;9.13;;;9.10;58.10;;;;;;4923344;29;20843;-85
2022/12/02 05:00:43;;;;;;;18.47;8.77;;;9.10;58.00;;;;;;4945803;28;20575;-85
2022/12/02 05:03:10;;;;;;;15.27;8.40;;;9.20;57.80;;;;;;4909655;29;20478;-86
2022/12/02 05:05:37;;;;;;;20.20;9.17;;;9.30;57.80;;;;;;4920703;29;20856;-85
2022/12/02 05:08:05;;;;;;;19.10;8.63;;;8.90;58.00;;;;;;4934923;29;20457;-86
2022/12/02 05:10:33;;;;;;;18.67;9.57;;;8.70;58.60;;;;;;4949646;28;20483;-85
2022/12/02 05:13:00;;;;;;;19.33;8.80;;;8.70;59.00;;;;;;4901399;28;20553;-84
2022/12/02 05:15:26;;;;;;;18.87;9.00;;;8.70;58.70;;;;;;4921470;29;20981;-85
2022/12/02 05:17:56;;;;;;;17.07;9.10;;;8.70;58.80;;;;;;4940102;28;21016;-86
2022/12/02 05:20:22;;;;;;;14.40;8.50;;;8.70;58.90;;;;;;4933101;29;21434;-85
2022/12/02 05:22:49;;;;;;;16.87;8.70;;;8.70;59.00;;;;;;4946033;28;20471;-85
2022/12/02 05:25:16;;;;;;;22.77;10.93;;;8.80;58.90;;;;;;4934852;29;20462;-84
2022/12/02 05:27:44;;;;;;;22.17;9.70;;;8.70;58.60;;;;;;4931505;29;21043;-85
2022/12/02 05:30:12;;;;;;;17.80;8.97;;;8.80;58.50;;;;;;4945855;28;20467;-84
2022/12/02 05:32:39;;;;;;;19.50;8.13;;;8.40;59.30;;;;;;4934561;28;20471;-85
2022/12/02 05:35:08;;;;;;;18.00;8.90;;;8.40;59.50;;;;;;4948107;28;20451;-84
2022/12/02 05:37:35;;;;;;;14.20;8.10;;;8.50;59.40;;;;;;4949602;28;20453;-87
2022/12/02 05:40:02;;;;;;;19.80;8.73;;;8.40;59.60;;;;;;4951696;28;20967;-85
2022/12/02 05:42:29;;;;;;;17.10;8.87;;;8.50;59.50;;;;;;4957860;28;20562;-85
2022/12/02 05:45:00;;;;;;;16.60;8.83;;;8.70;58.70;;;;;;4907352;29;20525;-85
2022/12/02 05:47:29;;;;;;;15.30;8.50;;;8.70;58.80;;;;;;4924644;29;20458;-87
2022/12/02 05:49:58;;;;;;;18.83;8.50;;;8.70;58.40;;;;;;4933192;28;20455;-87
2022/12/02 05:52:28;;;;;;;15.20;6.90;;;8.70;58.70;;;;;;4950952;28;20479;-85
2022/12/02 05:54:57;;;;;;;15.67;7.53;;;8.60;58.60;;;;;;4902581;29;20461;-85
2022/12/02 05:57:27;;;;;;;16.80;9.23;;;8.60;58.70;;;;;;4941401;28;20458;-85
2022/12/02 06:00:00;;;;;;;15.87;8.27;;;8.80;58.50;;;;;;4935668;28;20447;-86
2022/12/02 06:02:33;;;;;;;13.67;8.60;;;8.90;58.40;;;;;;4949623;28;20564;-86
2022/12/02 06:05:00;;;;;;;19.47;7.43;;;9.00;57.80;;;;;;4934072;28;21014;-85
2022/12/02 06:07:28;;;;;;;16.30;8.47;;;9.10;58.00;;;;;;4935534;29;20450;-86
2022/12/02 06:09:55;;;;;;;18.80;8.63;;;9.10;57.70;;;;;;4921108;29;20464;-85
2022/12/02 06:12:22;;;;;;;14.27;7.40;;;9.00;57.70;;;;;;4918894;29;20462;-85
2022/12/02 06:14:54;;;;;;;15.03;7.50;;;9.00;57.60;;;;;;4951023;28;20491;-85
2022/12/02 06:17:22;;;;;;;13.77;6.73;;;9.00;58.00;;;;;;4942639;29;20450;-85
2022/12/02 06:19:54;;;;;;;12.60;8.23;;;8.90;57.70;;;;;;4926390;29;20462;-85
2022/12/02 06:22:25;;;;;;;20.83;8.60;;;8.90;57.80;;;;;;4919027;29;20486;-85
2022/12/02 06:24:55;;;;;;;19.13;9.40;;;8.70;58.00;;;;;;4941870;28;20482;-86
2022/12/02 06:27:22;;;;;;;15.80;7.87;;;8.60;58.30;;;;;;4935917;29;20489;-87
2022/12/02 06:29:52;;;;;;;13.50;7.07;;;8.60;58.70;;;;;;4950825;28;20474;-85
2022/12/02 06:32:21;;;;;;;13.60;8.40;;;8.60;58.80;;;;;;4933739;29;20462;-86
2022/12/02 06:34:50;;;;;;;12.93;7.50;;;8.60;58.60;;;;;;4911780;29;20446;-84
2022/12/02 06:37:21;;;;;;;14.50;7.40;;;8.60;59.00;;;;;;4937755;29;20461;-85
2022/12/02 06:39:50;;;;;;;15.13;8.20;;;8.80;58.70;;;;;;4938711;29;21046;-86
2022/12/02 06:42:25;;;;;;;11.40;7.00;;;8.80;58.50;;;;;;4936291;29;20466;-86
2022/12/02 06:45:04;;;;;;;16.30;8.13;;;8.90;58.30;;;;;;4941504;29;21134;-85
2022/12/02 06:47:50;;;;;;;14.83;8.10;;;9.00;57.90;;;;;;4966830;28;20449;-84
2022/12/02 06:50:28;;;;;;;15.53;8.53;;;8.90;58.10;;;;;;4934124;29;20451;-84
2022/12/02 06:53:10;;;;;;;12.87;6.80;;;8.70;58.50;;;;;;4911422;29;20474;-85
2022/12/02 06:55:39;;;;;;;9.00;6.43;;;8.70;58.30;;;;;;4954646;28;20488;-85
2022/12/02 06:58:25;;;;;;;14.80;8.07;;;8.60;58.40;;;;;;4952676;28;20458;-85
2022/12/02 07:00:52;;;;;;;12.03;8.17;;;8.50;58.60;;;;;;4934586;29;20822;-85
2022/12/02 07:03:29;;;;;;;13.13;7.10;;;8.10;59.40;;;;;;4919102;29;20474;-85
2022/12/02 07:06:02;;;;;;;13.13;7.17;;;8.10;60.50;;;;;;4926606;29;20450;-84
2022/12/02 07:08:35;;;;;;;11.20;6.37;;;8.20;59.60;;;;;;4901735;29;20468;-85
2022/12/02 07:11:02;;;;;;;13.03;7.77;;;8.20;60.20;;;;;;4910776;29;20520;-85
2022/12/02 07:13:31;;;;;;;12.83;7.23;;;8.50;60.20;;;;;;4927093;29;20464;-86
2022/12/02 07:15:58;;;;;;;15.40;7.20;;;8.10;59.40;;;;;;4902640;29;20459;-86
2022/12/02 07:18:25;;;;;;;14.53;7.03;;;8.10;60.30;;;;;;4910243;29;20561;-88
2022/12/02 07:20:52;;;;;;;11.00;7.27;;;8.00;59.50;;;;;;4917960;29;20473;-87
2022/12/02 07:23:20;;;;;;;15.70;7.50;;;7.90;60.00;;;;;;4921568;29;20462;-84
2022/12/02 07:25:49;;;;;;;11.30;6.10;;;8.00;60.80;;;;;;4935475;29;20502;-85
2022/12/02 07:28:26;;;;;;;12.70;6.43;;;8.20;59.70;;;;;;4925728;29;20558;-85
2022/12/02 07:31:01;;;;;;;9.27;6.17;;;8.00;60.00;;;;;;4925499;29;20462;-86
2022/12/02 07:33:28;;;;;;;12.00;5.90;;;7.90;60.30;;;;;;4922688;29;20469;-86
2022/12/02 07:35:55;;;;;;;12.97;6.83;;;7.90;60.50;;;;;;4925289;29;20476;-84
2022/12/02 07:38:22;;;;;;;11.83;6.80;;;8.20;60.50;;;;;;4937822;29;20533;-86
2022/12/02 07:40:49;;;;;;;13.63;7.77;;;8.20;60.00;;;;;;4909651;29;20455;-85
2022/12/02 07:43:16;;;;;;;11.43;5.97;;;8.20;60.00;;;;;;4935362;28;20569;-86
2022/12/02 07:45:43;;;;;;;11.20;6.03;;;8.20;59.80;;;;;;4921547;29;20926;-85
2022/12/02 07:48:12;;;;;;;13.33;7.30;;;8.10;60.00;;;;;;4923411;29;20471;-85
2022/12/02 07:50:39;;;;;;;12.67;8.20;;;7.90;60.20;;;;;;4967567;28;20462;-85
2022/12/02 07:53:06;;;;;;;17.10;8.00;;;7.90;61.00;;;;;;4937060;29;20478;-84
2022/12/02 07:55:33;;;;;;;17.07;7.77;;;8.30;61.00;;;;;;4901830;29;20462;-86
2022/12/02 07:58:00;;;;;;;10.63;6.30;;;8.20;60.40;;;;;;4933764;29;20458;-85
2022/12/02 08:00:27;;;;;;;12.93;7.80;;;8.20;60.50;;;;;;4951352;28;20511;-85
2022/12/02 08:02:55;;;;;;;18.83;8.43;;;8.40;60.30;;;;;;4935701;28;20567;-84
2022/12/02 08:05:24;;;;;;;12.43;7.33;;;8.50;59.40;;;;;;4933243;29;20481;-86
2022/12/02 08:07:51;;;;;;;10.93;7.03;;;8.50;59.50;;;;;;4931285;29;20470;-84
2022/12/02 08:10:18;;;;;;;12.50;7.70;;;8.50;59.30;;;;;;4930813;28;20493;-85
2022/12/02 08:12:45;;;;;;;11.87;7.27;;;8.50;59.50;;;;;;4948804;28;20467;-85
2022/12/02 08:15:14;;;;;;;10.07;6.27;;;8.40;59.90;;;;;;4935379;29;20443;-85
2022/12/02 08:17:42;;;;;;;13.73;6.77;;;8.30;59.60;;;;;;4933534;29;20505;-88
2022/12/02 08:20:11;;;;;;;11.17;6.43;;;8.30;59.50;;;;;;4915978;29;20451;-85
2022/12/02 08:22:40;;;;;;;10.40;7.00;;;8.50;59.40;;;;;;4938291;29;20581;-86
2022/12/02 08:25:07;;;;;;;11.70;7.40;;;8.30;59.20;;;;;;4936638;29;20486;-88
2022/12/02 08:27:36;;;;;;;11.07;6.73;;;8.20;59.50;;;;;;4933910;28;20474;-85
2022/12/02 08:30:03;;;;;;;9.00;5.60;;;8.20;59.20;;;;;;4951005;28;20483;-85
2022/12/02 08:32:30;;;;;;;8.63;6.17;;;7.90;59.60;;;;;;4948118;28;20485;-85
2022/12/02 08:34:57;;;;;;;7.67;6.00;;;7.80;59.70;;;;;;4920907;29;20466;-87
2022/12/02 08:37:24;;;;;;;15.60;5.83;;;7.90;59.90;;;;;;4919887;29;20493;-87
2022/12/02 08:39:53;;;;;;;10.37;5.60;;;7.80;60.60;;;;;;4912493;29;20471;-84
2022/12/02 08:42:20;;;;;;;8.70;5.37;;;7.80;60.30;;;;;;4921184;29;20459;-84
2022/12/02 08:44:46;;;;;;;10.70;5.97;;;7.60;60.10;;;;;;4920502;29;20478;-87
2022/12/02 08:47:13;;;;;;;10.27;5.60;;;7.70;61.00;;;;;;4949311;28;20439;-85
2022/12/02 08:49:41;;;;;;;12.70;6.17;;;7.90;61.30;;;;;;4942814;29;20589;-85
2022/12/02 08:52:08;;;;;;;8.27;5.17;;;8.10;60.60;;;;;;4953347;28;20466;-85
2022/12/02 08:54:35;;;;;;;9.33;5.27;;;8.20;59.30;;;;;;4934305;29;20458;-86
2022/12/02 08:57:04;;;;;;;8.37;4.73;;;8.10;60.00;;;;;;4941273;29;20462;-87
2022/12/02 08:59:31;;;;;;;7.87;4.80;;;8.10;59.40;;;;;;4927356;29;20490;-86
2022/12/02 09:01:58;;;;;;;15.93;9.37;;;8.10;59.10;;;;;;4941223;28;20485;-89
2022/12/02 09:04:25;;;;;;;12.70;6.30;;;8.20;58.50;;;;;;4925666;29;20998;-88
2022/12/02 09:06:52;;;;;;;8.03;5.57;;;8.10;59.10;;;;;;4920659;29;20932;-84
2022/12/02 09:09:19;;;;;;;12.47;6.50;;;7.90;59.50;;;;;;4906514;29;20824;-85
2022/12/02 09:11:46;;;;;;;10.83;6.27;;;7.80;59.70;;;;;;4946337;28;20487;-87
2022/12/02 09:14:14;;;;;;;16.23;6.90;;;7.80;59.70;;;;;;4932441;29;20458;-86
2022/12/02 09:16:41;;;;;;;8.40;5.70;;;7.70;59.90;;;;;;4946767;28;20454;-86
2022/12/02 09:19:08;;;;;;;7.53;5.13;;;7.70;60.20;;;;;;4947721;28;20991;-87
2022/12/02 09:21:35;;;;;;;9.50;6.03;;;7.80;60.10;;;;;;4922984;29;20602;-87
2022/12/02 09:24:02;;;;;;;15.27;5.10;;;7.90;60.20;;;;;;4939954;28;20480;-85
2022/12/02 09:26:29;;;;;;;7.80;5.43;;;8.00;60.10;;;;;;4933892;29;20453;-86
2022/12/02 09:28:56;;;;;;;9.07;6.40;;;8.00;59.60;;;;;;4931633;28;20485;-86
2022/12/02 09:31:24;;;;;;;10.70;5.50;;;7.90;59.00;;;;;;4950365;28;20490;-85
2022/12/02 09:33:51;;;;;;;10.03;5.80;;;7.80;59.80;;;;;;4964406;28;20827;-85
2022/12/02 09:36:18;;;;;;;10.67;6.50;;;7.70;59.80;;;;;;4946765;28;20490;-85
2022/12/02 09:38:45;;;;;;;10.93;7.10;;;7.70;60.50;;;;;;4948999;28;20474;-85
2022/12/02 09:41:12;;;;;;;8.50;6.43;;;7.80;60.70;;;;;;4924054;29;20459;-88
2022/12/02 09:43:39;;;;;;;11.30;6.47;;;8.00;60.50;;;;;;4949028;28;20475;-87
2022/12/02 09:46:06;;;;;;;13.10;6.40;;;8.00;60.20;;;;;;4920586;29;20493;-85
2022/12/02 09:48:35;;;;;;;9.93;6.10;;;7.80;59.70;;;;;;4929499;29;20548;-86
2022/12/02 09:51:02;;;;;;;12.13;7.03;;;7.80;59.60;;;;;;4934432;28;20478;-85
2022/12/02 09:53:33;;;;;;;10.53;6.00;;;8.00;60.20;;;;;;4925727;29;20497;-86
2022/12/02 09:56:00;;;;;;;11.03;5.77;;;7.70;59.40;;;;;;4939689;29;20491;-85
2022/12/02 09:58:27;;;;;;;9.80;5.80;;;7.90;60.20;;;;;;4903980;29;20469;-85
2022/12/02 10:00:54;;;;;;;11.90;7.17;;;7.70;59.60;;;;;;4940532;28;21013;-84
2022/12/02 10:03:25;;;;;;;9.83;6.17;;;7.70;60.50;;;;;;4927941;29;20538;-85
2022/12/02 10:05:55;;;;;;;11.33;6.63;;;7.70;60.20;;;;;;4942977;29;20864;-85
2022/12/02 10:08:26;;;;;;;14.30;7.50;;;7.80;59.60;;;;;;4940775;28;20461;-85
2022/12/02 10:10:55;;;;;;;13.67;7.80;;;7.50;60.10;;;;;;4966055;28;20454;-85
2022/12/02 10:13:24;;;;;;;12.87;7.40;;;7.70;60.10;;;;;;4941316;29;20475;-86
2022/12/02 10:15:52;;;;;;;12.30;7.40;;;7.50;60.20;;;;;;4936888;29;20872;-84
2022/12/02 10:18:21;;;;;;;10.13;6.60;;;7.30;61.50;;;;;;4905726;29;20467;-85
2022/12/02 10:20:49;;;;;;;11.50;6.30;;;7.30;61.00;;;;;;4936974;28;20468;-86
2022/12/02 10:23:19;;;;;;;16.07;7.80;;;7.30;61.00;;;;;;4928537;29;20849;-86
2022/12/02 10:25:48;;;;;;;10.47;6.33;;;7.30;61.10;;;;;;4953035;28;20484;-85
2022/12/02 10:28:24;;;;;;;12.87;7.70;;;7.20;61.20;;;;;;4927012;29;20455;-86
2022/12/02 10:30:54;;;;;;;12.30;6.60;;;7.10;61.70;;;;;;4937389;28;20453;-85
2022/12/02 10:33:25;;;;;;;18.20;7.40;;;7.00;62.30;;;;;;4909249;29;20563;-86
2022/12/02 10:35:53;;;;;;;11.57;7.83;;;7.20;62.10;;;;;;4899770;29;20454;-86
2022/12/02 10:38:35;;;;;;;17.27;8.03;;;7.20;60.70;;;;;;4952154;28;20463;-86
2022/12/02 10:41:15;;;;;;;15.60;9.20;;;7.00;61.60;;;;;;4904224;29;20541;-86
2022/12/02 10:43:45;;;;;;;12.83;7.80;;;7.20;62.30;;;;;;4927929;29;21184;-86
2022/12/02 10:46:12;;;;;;;12.60;8.00;;;7.40;61.90;;;;;;4950855;28;20474;-85
2022/12/02 10:48:39;;;;;;;11.40;6.80;;;7.20;61.40;;;;;;4935445;28;20975;-85
2022/12/02 10:51:10;;;;;;;12.23;7.50;;;7.20;61.50;;;;;;4920199;29;20458;-88
2022/12/02 10:53:38;;;;;;;16.80;9.17;;;7.30;61.50;;;;;;4938500;29;21025;-86
2022/12/02 10:56:06;;;;;;;15.87;8.47;;;7.40;61.10;;;;;;4950230;28;20472;-85
2022/12/02 10:58:33;;;;;;;14.87;9.00;;;7.40;61.30;;;;;;4937281;29;20460;-87
2022/12/02 11:01:02;;;;;;;11.93;7.87;;;7.50;61.10;;;;;;4952497;28;20458;-86
2022/12/02 11:03:29;;;;;;;14.97;8.50;;;7.70;60.00;;;;;;4936564;28;21003;-86
2022/12/02 11:05:57;;;;;;;16.20;8.70;;;7.60;59.80;;;;;;4955711;28;20510;-87
2022/12/02 11:08:26;;;;;;;14.33;8.77;;;7.20;60.60;;;;;;4911418;29;20493;-85
2022/12/02 11:11:11;;;;;;;13.30;8.67;;;7.10;61.70;;;;;;4909704;29;20743;-86
2022/12/02 11:13:52;;;;;;;15.27;8.80;;;7.20;61.40;;;;;;4952700;28;20446;-86
2022/12/02 11:16:43;;;;;;;11.43;6.90;;;7.00;61.90;;;;;;4923195;29;20462;-88
2022/12/02 11:19:39;;;;;;;12.77;8.50;;;7.00;61.50;;;;;;4921043;29;20530;-85
2022/12/02 11:22:45;;;;;;;13.60;7.77;;;7.10;61.60;;;;;;4922622;29;20490;-87
2022/12/02 11:25:46;;;;;;;17.13;8.77;;;7.10;62.10;;;;;;4938574;29;20667;-87
2022/12/02 11:28:35;;;;;;;14.97;8.07;;;7.10;61.50;;;;;;4927554;29;20550;-85
2022/12/02 11:31:17;;;;;;;18.40;8.77;;;6.90;61.80;;;;;;4949766;28;20462;-85
2022/12/02 11:34:00;;;;;;;17.13;8.00;;;6.90;61.90;;;;;;4927843;29;20455;-85
2022/12/02 11:36:29;;;;;;;27.80;10.60;;;7.10;61.70;;;;;;4918989;29;20545;-86
2022/12/02 11:39:03;;;;;;;22.77;10.67;;;7.00;61.80;;;;;;4904211;29;20478;-88
2022/12/02 11:41:51;;;;;;;23.20;11.83;;;6.90;61.50;;;;;;4926297;29;20827;-85
2022/12/02 11:44:25;;;;;;;16.83;10.27;;;6.90;62.00;;;;;;4903997;29;20460;-86
2022/12/02 11:46:54;;;;;;;17.83;10.10;;;6.80;62.10;;;;;;4932768;28;20478;-84
2022/12/02 11:49:37;;;;;;;18.67;10.20;;;6.80;62.20;;;;;;4942257;29;20450;-86
2022/12/02 11:52:16;;;;;;;15.73;9.30;;;7.00;61.80;;;;;;4918370;29;20477;-85
2022/12/02 11:54:47;;;;;;;16.60;9.30;;;7.10;61.50;;;;;;4933447;28;20465;-88
2022/12/02 11:57:19;;;;;;;17.73;10.67;;;7.30;61.50;;;;;;4920110;29;20542;-85
2022/12/02 11:59:48;;;;;;;17.67;10.33;;;7.20;60.40;;;;;;4918539;28;20462;-85
2022/12/02 12:02:18;;;;;;;16.10;9.30;;;7.10;61.10;;;;;;4949656;28;20478;-86
2022/12/02 12:04:46;;;;;;;18.73;9.70;;;7.10;61.30;;;;;;4948903;28;20470;-86
2022/12/02 12:07:14;;;;;;;16.67;9.43;;;7.30;61.60;;;;;;4925964;29;20646;-86
2022/12/02 12:09:41;;;;;;;16.83;8.50;;;7.40;60.80;;;;;;4923845;29;20974;-86
2022/12/02 12:12:14;;;;;;;19.70;11.03;;;7.60;60.50;;;;;;4910173;29;20528;-85
2022/12/02 12:14:59;;;;;;;19.03;10.50;;;7.60;60.10;;;;;;4934878;29;20454;-86
2022/12/02 12:17:42;;;;;;;16.70;9.40;;;7.60;59.70;;;;;;4932201;29;21130;-85
2022/12/02 12:20:46;;;;;;;20.33;11.77;;;7.50;60.00;;;;;;4923168;29;20975;-85
2022/12/02 12:23:31;;;;;;;20.53;12.27;;;7.60;59.80;;;;;;4923258;29;20473;-85
2022/12/02 12:25:58;;;;;;;27.97;14.40;;;7.70;59.70;;;;;;4930881;28;20475;-86
2022/12/02 12:28:26;;;;;;;28.90;15.87;;;7.40;59.70;;;;;;4943677;28;20578;-84
2022/12/02 12:30:54;;;;;;;22.73;12.40;;;7.40;59.90;;;;;;4948193;28;20481;-85
2022/12/02 12:33:22;;;;;;;17.60;10.43;;;7.40;59.90;;;;;;4945144;28;20488;-84
2022/12/02 12:35:49;;;;;;;21.20;12.80;;;7.60;59.90;;;;;;4950560;28;20446;-86
2022/12/02 12:38:16;;;;;;;20.73;11.13;;;7.60;59.00;;;;;;4964029;28;20846;-86
2022/12/02 12:40:43;;;;;;;18.53;11.40;;;7.20;60.10;;;;;;4930251;29;20451;-86
2022/12/02 12:43:10;;;;;;;21.20;12.90;;;7.20;59.90;;;;;;4936442;28;21009;-85
2022/12/02 12:45:37;;;;;;;15.43;8.70;;;7.20;60.70;;;;;;4939832;28;20573;-86
2022/12/02 12:48:05;;;;;;;15.63;9.47;;;7.10;60.50;;;;;;4931201;29;20459;-86
2022/12/02 12:50:32;;;;;;;16.83;11.17;;;7.00;60.50;;;;;;4923896;29;20456;-85
2022/12/02 12:52:59;;;;;;;18.83;9.70;;;6.80;61.10;;;;;;4932864;29;20471;-85
2022/12/02 12:55:26;;;;;;;17.17;10.50;;;7.10;61.20;;;;;;4947875;28;20855;-85
2022/12/02 12:57:53;;;;;;;16.23;8.83;;;7.20;60.90;;;;;;4928678;29;20463;-86
2022/12/02 13:00:21;;;;;;;17.73;10.83;;;7.30;61.20;;;;;;4930355;28;20486;-85